createdAt,value
2023-01-13T00:02:12.204Z,84.94
2023-01-13T00:04:42.025Z,82.93
2023-01-13T00:07:13.342Z,83.43
2023-01-13T00:09:45.781Z,85.93
2023-01-13T00:12:15.518Z,84.48
2023-01-13T00:14:45.820Z,83.26
2023-01-13T00:17:15.918Z,84.16
2023-01-13T00:19:46.990Z,83.27
2023-01-13T00:22:16.397Z,81.19
2023-01-13T00:24:48.235Z,81.87
2023-01-13T00:27:18.476Z,84.53
2023-01-13T00:29:48.552Z,83.85
2023-01-13T00:32:18.564Z,84.48
2023-01-13T00:34:48.528Z,86.02
2023-01-13T00:37:19.259Z,82.46
2023-01-13T00:39:51.995Z,82.10
2023-01-13T00:42:39.793Z,83.69
2023-01-13T00:45:09.854Z,83.30
2023-01-13T00:47:40.740Z,84.21
2023-01-13T00:50:13.279Z,83.04
2023-01-13T00:52:43.009Z,84.82
2023-01-13T00:55:14.333Z,82.64
2023-01-13T00:57:44.449Z,85.03
2023-01-13T01:00:16.538Z,84.31
2023-01-13T01:02:52.927Z,83.71
2023-01-13T01:05:22.528Z,85.10
2023-01-13T01:07:52.238Z,84.52
2023-01-13T01:10:24.411Z,85.21
2023-01-13T01:12:54.547Z,83.39
2023-01-13T01:15:24.732Z,86.69
2023-01-13T01:17:55.188Z,84.32
2023-01-13T01:20:25.514Z,82.66
2023-01-13T01:22:55.565Z,82.09
2023-01-13T01:25:27.157Z,82.49
2023-01-13T01:27:57.619Z,87.19
2023-01-13T01:30:27.574Z,84.35
2023-01-13T01:32:59.203Z,83.66
2023-01-13T01:35:28.974Z,84.57
2023-01-13T01:37:59.763Z,85.12
2023-01-13T01:40:31.262Z,83.80
2023-01-13T01:43:18.624Z,86.72
2023-01-13T01:45:48.416Z,82.96
2023-01-13T01:48:18.301Z,83.83
2023-01-13T01:50:49.407Z,82.87
2023-01-13T01:53:23.056Z,84.28
2023-01-13T01:55:54.166Z,84.41
2023-01-13T01:58:27.870Z,83.20
2023-01-13T02:00:58.140Z,81.23
2023-01-13T02:03:28.998Z,81.49
2023-01-13T02:05:59.381Z,83.19
2023-01-13T02:08:29.543Z,84.09
2023-01-13T02:11:00.943Z,81.65
2023-01-13T02:13:29.879Z,83.20
2023-01-13T02:16:09.265Z,83.52
2023-01-13T02:18:48.757Z,82.16
2023-01-13T02:21:53.031Z,85.46
2023-01-13T02:24:56.941Z,81.41
2023-01-13T02:27:49.918Z,83.56
2023-01-13T02:30:45.724Z,82.39
2023-01-13T02:33:40.515Z,85.88
2023-01-13T02:36:17.058Z,84.01
2023-01-13T02:38:52.901Z,84.26
2023-01-13T02:41:46.158Z,83.36
2023-01-13T02:44:22.128Z,86.64
2023-01-13T02:46:57.491Z,86.56
2023-01-13T02:49:35.157Z,84.01
2023-01-13T02:52:10.862Z,85.46
2023-01-13T02:54:43.992Z,86.76
2023-01-13T02:57:15.020Z,89.17
2023-01-13T02:59:45.761Z,89.99
2023-01-13T03:02:21.194Z,89.67
2023-01-13T03:04:54.717Z,85.52
2023-01-13T03:07:47.314Z,85.59
2023-01-13T03:10:38.027Z,84.72
2023-01-13T03:13:22.637Z,84.07
2023-01-13T03:16:00.277Z,84.74
2023-01-13T03:18:42.822Z,84.36
2023-01-13T03:21:18.617Z,84.54
2023-01-13T03:23:52.835Z,84.00
2023-01-13T03:26:30.698Z,82.99
2023-01-13T03:29:07.320Z,83.86
2023-01-13T03:31:40.091Z,81.30
2023-01-13T03:34:16.139Z,81.48
2023-01-13T03:36:47.238Z,83.02
2023-01-13T03:39:22.478Z,83.79
2023-01-13T03:41:54.922Z,84.00
2023-01-13T03:44:32.949Z,82.81
2023-01-13T03:47:14.199Z,83.83
2023-01-13T03:49:55.754Z,84.19
2023-01-13T03:52:29.852Z,84.33
2023-01-13T03:55:04.472Z,83.87
2023-01-13T03:57:38.372Z,85.43
2023-01-13T04:00:11.583Z,84.17
2023-01-13T04:02:50.332Z,83.98
2023-01-13T04:05:22.517Z,82.43
2023-01-13T04:07:58.657Z,84.61
2023-01-13T04:10:32.023Z,88.57
2023-01-13T04:13:04.843Z,82.93
2023-01-13T04:15:39.514Z,84.95
2023-01-13T04:18:28.889Z,87.35
2023-01-13T04:21:02.476Z,85.72
2023-01-13T04:23:32.968Z,85.39
2023-01-13T04:26:03.697Z,85.70
2023-01-13T04:28:35.318Z,86.88
2023-01-13T04:31:06.123Z,84.17
2023-01-13T04:33:36.273Z,84.16
2023-01-13T04:36:09.165Z,83.38
2023-01-13T04:38:38.937Z,82.92
2023-01-13T04:41:09.015Z,82.27
2023-01-13T04:43:38.537Z,83.59
2023-01-13T04:46:07.985Z,85.95
2023-01-13T04:48:37.674Z,84.33
2023-01-13T04:51:08.837Z,83.51
2023-01-13T04:53:39.850Z,88.10
2023-01-13T04:56:10.337Z,83.53
2023-01-13T04:58:40.628Z,84.54
2023-01-13T05:01:10.819Z,86.10
2023-01-13T05:03:41.289Z,83.55
2023-01-13T05:06:13.588Z,85.71
2023-01-13T05:08:43.576Z,82.82
2023-01-13T05:11:27.277Z,84.43
2023-01-13T05:14:15.068Z,83.25
2023-01-13T05:17:03.627Z,84.63
2023-01-13T05:19:36.574Z,88.80
2023-01-13T05:22:25.481Z,87.15
2023-01-13T05:25:13.392Z,87.88
2023-01-13T05:27:43.578Z,84.59
2023-01-13T05:30:14.784Z,84.78
2023-01-13T05:32:44.309Z,83.88
2023-01-13T05:35:16.589Z,87.25
2023-01-13T05:37:49.337Z,87.68
2023-01-13T05:40:38.199Z,87.57
2023-01-13T05:43:25.229Z,83.28
2023-01-13T05:45:59.000Z,84.95
2023-01-13T05:48:30.930Z,85.71
2023-01-13T05:51:01.673Z,83.48
2023-01-13T05:53:34.201Z,83.76
2023-01-13T05:56:07.528Z,86.43
2023-01-13T05:58:38.061Z,93.44
2023-01-13T06:01:11.938Z,87.88
2023-01-13T06:03:42.322Z,86.12
2023-01-13T06:06:12.630Z,89.88
2023-01-13T06:08:44.030Z,89.39
2023-01-13T06:11:14.046Z,88.42
2023-01-13T06:13:43.748Z,90.18
2023-01-13T06:16:13.626Z,85.80
2023-01-13T06:18:43.400Z,85.83
2023-01-13T06:21:13.725Z,84.63
2023-01-13T06:23:45.010Z,86.28
2023-01-13T06:26:17.442Z,84.89
2023-01-13T06:28:47.804Z,87.54
2023-01-13T06:31:17.662Z,84.55
2023-01-13T06:33:52.702Z,86.05
2023-01-13T06:36:24.794Z,86.41
2023-01-13T06:39:01.574Z,84.20
2023-01-13T06:41:51.684Z,83.85
2023-01-13T06:44:22.932Z,82.00
2023-01-13T06:46:54.262Z,86.26
2023-01-13T06:49:24.607Z,83.87
2023-01-13T06:51:54.971Z,84.13
2023-01-13T06:54:27.897Z,83.42
2023-01-13T06:56:57.961Z,82.97
2023-01-13T06:59:28.161Z,86.31
2023-01-13T07:01:58.225Z,81.83
2023-01-13T07:04:28.443Z,81.85
2023-01-13T07:06:59.291Z,83.16
2023-01-13T07:09:30.924Z,83.15
2023-01-13T07:12:00.652Z,84.97
2023-01-13T07:14:47.620Z,81.05
2023-01-13T07:17:25.573Z,85.11
2023-01-13T07:19:56.001Z,82.58
2023-01-13T07:22:26.296Z,83.17
2023-01-13T07:24:58.893Z,82.50
2023-01-13T07:27:28.757Z,81.92
2023-01-13T07:29:58.027Z,84.05
2023-01-13T07:32:27.606Z,86.55
2023-01-13T07:34:58.901Z,84.35
2023-01-13T07:37:28.947Z,83.97
2023-01-13T07:40:01.270Z,88.04
2023-01-13T07:42:48.960Z,84.18
2023-01-13T07:45:18.689Z,84.02
2023-01-13T07:47:49.206Z,86.23
2023-01-13T07:50:19.158Z,82.86
2023-01-13T07:52:49.139Z,84.27
2023-01-13T07:55:20.477Z,84.11
2023-01-13T07:57:50.871Z,83.91
2023-01-13T08:00:23.582Z,82.28
2023-01-13T08:02:53.290Z,85.18
2023-01-13T08:05:24.073Z,85.36
2023-01-13T08:07:53.990Z,83.96
2023-01-13T08:10:26.411Z,83.49
2023-01-13T08:13:13.654Z,84.08
2023-01-13T08:15:43.793Z,85.10
2023-01-13T08:18:14.811Z,83.53
2023-01-13T08:20:45.189Z,85.52
2023-01-13T08:23:14.967Z,86.03
2023-01-13T08:25:46.810Z,83.62
2023-01-13T08:28:17.209Z,84.16
2023-01-13T08:30:47.442Z,82.96
2023-01-13T08:33:17.489Z,82.18
2023-01-13T08:35:48.544Z,82.11
2023-01-13T08:38:20.272Z,81.11
2023-01-13T08:40:51.588Z,80.80
2023-01-13T08:43:22.294Z,79.50
2023-01-13T08:45:59.125Z,79.89
2023-01-13T08:48:31.632Z,79.91
2023-01-13T08:51:06.092Z,81.04
2023-01-13T08:53:36.687Z,81.75
2023-01-13T08:56:13.454Z,83.01
2023-01-13T08:58:43.375Z,82.56
2023-01-13T09:01:15.706Z,83.97
2023-01-13T09:03:45.861Z,85.61
2023-01-13T09:06:16.322Z,80.88
2023-01-13T09:08:46.291Z,80.67
2023-01-13T09:11:38.885Z,81.50
2023-01-13T09:14:08.564Z,80.86
2023-01-13T09:16:39.472Z,82.52
2023-01-13T09:19:09.784Z,81.79
2023-01-13T09:21:39.857Z,82.35
2023-01-13T09:24:10.182Z,82.49
2023-01-13T09:26:42.891Z,81.29
2023-01-13T09:29:13.186Z,81.06
2023-01-13T09:31:44.388Z,81.36
2023-01-13T09:34:35.420Z,79.22
2023-01-13T09:37:06.314Z,80.05
2023-01-13T09:39:37.669Z,83.18
2023-01-13T09:42:32.784Z,82.43
2023-01-13T09:45:07.622Z,80.64
2023-01-13T09:47:44.415Z,79.19
2023-01-13T09:50:25.721Z,80.76
2023-01-13T09:52:55.829Z,79.80
2023-01-13T09:55:30.810Z,80.86
2023-01-13T09:58:04.513Z,80.14
2023-01-13T10:00:40.833Z,79.42
2023-01-13T10:03:21.535Z,81.50
2023-01-13T10:05:57.937Z,79.46
2023-01-13T10:08:31.118Z,78.30
2023-01-13T10:11:23.851Z,76.48
2023-01-13T10:13:58.905Z,75.46
2023-01-13T10:16:42.314Z,76.29
2023-01-13T10:19:19.968Z,76.01
2023-01-13T10:22:22.029Z,75.31
2023-01-13T10:25:36.378Z,75.99
2023-01-13T10:28:12.646Z,72.91
2023-01-13T10:30:45.635Z,74.08
2023-01-13T10:33:18.170Z,74.35
2023-01-13T10:36:01.327Z,73.48
2023-01-13T10:38:38.734Z,73.49
2023-01-13T10:41:25.513Z,74.57
2023-01-13T10:44:08.539Z,74.29
2023-01-13T10:46:56.168Z,76.41
2023-01-13T10:49:33.143Z,77.72
2023-01-13T10:52:04.409Z,77.02
2023-01-13T10:54:54.519Z,75.47
2023-01-13T10:57:26.235Z,75.62
2023-01-13T10:59:56.825Z,76.59
2023-01-13T11:02:32.570Z,73.57
2023-01-13T11:05:11.722Z,75.12
2023-01-13T11:07:43.750Z,76.66
2023-01-13T11:10:23.480Z,76.37
2023-01-13T11:13:00.517Z,75.07
2023-01-13T11:15:40.695Z,78.08
2023-01-13T11:18:20.818Z,77.49
2023-01-13T11:20:53.162Z,77.92
2023-01-13T11:23:27.686Z,78.82
2023-01-13T11:26:04.398Z,76.70
2023-01-13T11:28:43.231Z,76.54
2023-01-13T11:31:18.691Z,75.95
2023-01-13T11:33:55.812Z,75.35
2023-01-13T11:36:30.575Z,75.21
2023-01-13T11:39:05.632Z,75.00
2023-01-13T11:41:46.775Z,75.65
2023-01-13T11:44:21.517Z,72.35
2023-01-13T11:46:52.526Z,72.20
2023-01-13T11:49:28.792Z,71.61
2023-01-13T11:52:06.396Z,69.12
2023-01-13T11:54:58.553Z,68.54
2023-01-13T11:57:47.976Z,69.26
2023-01-13T12:00:29.695Z,67.91
2023-01-13T12:03:11.015Z,68.04
2023-01-13T12:05:45.143Z,66.27
2023-01-13T12:08:26.704Z,69.09
2023-01-13T12:11:03.064Z,64.60
2023-01-13T12:13:42.768Z,68.57
2023-01-13T12:16:18.925Z,68.71
2023-01-13T12:19:05.344Z,66.96
2023-01-13T12:21:42.433Z,67.63
2023-01-13T12:24:19.572Z,68.58
2023-01-13T12:26:54.368Z,70.04
2023-01-13T12:29:30.893Z,68.39
2023-01-13T12:32:03.594Z,70.46
2023-01-13T12:34:50.992Z,72.78
2023-01-13T12:37:30.415Z,67.86
2023-01-13T12:40:14.110Z,68.40
2023-01-13T12:43:05.160Z,69.05
2023-01-13T12:45:36.455Z,71.08
2023-01-13T12:48:07.704Z,67.74
2023-01-13T12:50:44.879Z,68.95
2023-01-13T12:53:39.301Z,69.23
2023-01-13T12:56:29.919Z,70.52
2023-01-13T12:59:36.815Z,70.97
2023-01-13T13:02:34.868Z,67.84
2023-01-13T13:05:39.386Z,67.50
2023-01-13T13:08:16.611Z,68.51
2023-01-13T13:11:03.687Z,71.00
2023-01-13T13:13:44.964Z,69.08
2023-01-13T13:16:54.157Z,66.44
2023-01-13T13:19:47.165Z,67.04
2023-01-13T13:22:37.132Z,64.03
2023-01-13T13:25:28.312Z,65.87
2023-01-13T13:28:14.606Z,64.28
2023-01-13T13:30:48.785Z,66.21
2023-01-13T13:33:36.941Z,68.08
2023-01-13T13:36:17.238Z,68.07
2023-01-13T13:39:22.444Z,65.84
2023-01-13T13:42:12.430Z,68.39
2023-01-13T13:45:05.533Z,67.71
2023-01-13T13:47:39.057Z,65.89
2023-01-13T13:50:12.057Z,64.30
2023-01-13T13:52:51.739Z,66.31
2023-01-13T13:55:24.025Z,67.12
2023-01-13T13:57:57.732Z,65.11
2023-01-13T14:00:32.672Z,66.83
2023-01-13T14:03:03.808Z,65.68
2023-01-13T14:05:35.769Z,67.99
2023-01-13T14:08:15.522Z,68.28
2023-01-13T14:10:47.461Z,68.20
2023-01-13T14:13:22.312Z,68.67
2023-01-13T14:15:59.316Z,68.13
2023-01-13T14:18:30.487Z,69.36
2023-01-13T14:21:03.905Z,68.65
2023-01-13T14:23:35.088Z,69.36
2023-01-13T14:26:09.781Z,68.04
2023-01-13T14:28:41.448Z,67.80
2023-01-13T14:31:14.271Z,68.95
2023-01-13T14:33:46.657Z,70.78
2023-01-13T14:36:19.278Z,71.25
2023-01-13T14:38:52.129Z,71.80
2023-01-13T14:41:24.585Z,72.22
2023-01-13T14:43:59.803Z,72.09
2023-01-13T14:46:42.644Z,73.34
2023-01-13T14:49:22.574Z,73.73
2023-01-13T14:51:52.801Z,75.71
2023-01-13T14:54:45.336Z,74.71
2023-01-13T14:57:25.758Z,76.13
2023-01-13T15:00:08.386Z,75.00
2023-01-13T15:02:48.347Z,74.08
2023-01-13T15:05:48.158Z,74.48
2023-01-13T15:08:39.668Z,74.82
2023-01-13T15:11:17.298Z,75.37
2023-01-13T15:13:53.744Z,74.69
2023-01-13T15:16:26.621Z,72.81
2023-01-13T15:19:00.195Z,73.72
2023-01-13T15:21:30.432Z,73.75
2023-01-13T15:24:00.626Z,74.18
2023-01-13T15:26:34.191Z,75.86
2023-01-13T15:29:07.545Z,75.22
2023-01-13T15:31:38.116Z,75.29
2023-01-13T15:34:09.589Z,74.80
2023-01-13T15:36:39.564Z,74.62
2023-01-13T15:39:12.233Z,72.91
2023-01-13T15:41:59.117Z,72.48
2023-01-13T15:44:46.251Z,72.30
2023-01-13T15:47:16.670Z,72.19
2023-01-13T15:49:48.155Z,73.44
2023-01-13T15:52:22.763Z,75.92
2023-01-13T15:54:54.116Z,75.10
2023-01-13T15:57:25.985Z,75.13
2023-01-13T15:59:58.529Z,75.88
2023-01-13T16:02:30.290Z,75.96
2023-01-13T16:05:01.729Z,76.11
2023-01-13T16:07:32.486Z,74.94
2023-01-13T16:10:04.145Z,74.72
2023-01-13T16:12:34.880Z,77.63
2023-01-13T16:15:04.641Z,77.54
2023-01-13T16:17:36.501Z,76.95
2023-01-13T16:20:16.359Z,75.93
2023-01-13T16:22:47.097Z,76.35
2023-01-13T16:25:19.610Z,76.72
2023-01-13T16:27:50.512Z,78.54
2023-01-13T16:30:27.034Z,76.80
2023-01-13T16:32:57.427Z,76.91
2023-01-13T16:35:29.529Z,78.30
2023-01-13T16:38:00.100Z,79.34
2023-01-13T16:40:33.693Z,78.66
2023-01-13T16:43:07.320Z,79.21
2023-01-13T16:45:37.640Z,80.10
2023-01-13T16:48:09.143Z,79.32
2023-01-13T16:50:42.692Z,78.56
2023-01-13T16:53:13.029Z,78.84
2023-01-13T16:55:43.964Z,80.77
2023-01-13T16:58:18.859Z,80.47
2023-01-13T17:00:49.568Z,80.32
2023-01-13T17:03:19.674Z,80.39
2023-01-13T17:05:51.174Z,78.65
2023-01-13T17:08:21.227Z,79.96
2023-01-13T17:10:53.528Z,78.41
2023-01-13T17:13:24.852Z,80.61
2023-01-13T17:15:54.814Z,79.91
2023-01-13T17:18:25.968Z,80.04
2023-01-13T17:20:58.990Z,83.03
2023-01-13T17:23:31.778Z,80.73
2023-01-13T17:26:01.804Z,80.68
2023-01-13T17:28:32.030Z,80.36
2023-01-13T17:31:01.636Z,79.24
2023-01-13T17:33:37.582Z,81.19
2023-01-13T17:36:09.851Z,81.33
2023-01-13T17:38:39.622Z,79.07
2023-01-13T17:41:09.967Z,79.12
2023-01-13T17:43:39.448Z,80.97
2023-01-13T17:46:11.546Z,79.83
2023-01-13T17:48:42.039Z,80.09
2023-01-13T17:51:15.755Z,79.79
2023-01-13T17:53:46.582Z,81.11
2023-01-13T17:56:19.254Z,80.51
2023-01-13T17:58:50.006Z,80.83
2023-01-13T18:01:21.953Z,80.39
2023-01-13T18:03:52.468Z,79.16
2023-01-13T18:06:26.220Z,78.66
2023-01-13T18:08:56.566Z,78.69
2023-01-13T18:11:26.967Z,82.18
2023-01-13T18:13:58.629Z,81.07
2023-01-13T18:16:30.957Z,82.51
2023-01-13T18:19:15.522Z,82.05
2023-01-13T18:22:04.694Z,82.60
2023-01-13T18:24:51.891Z,80.40
2023-01-13T18:27:27.089Z,82.22
2023-01-13T18:29:58.766Z,82.81
2023-01-13T18:32:32.990Z,83.02
2023-01-13T18:35:07.084Z,80.67
2023-01-13T18:37:40.762Z,79.88
2023-01-13T18:40:13.771Z,82.68
2023-01-13T18:42:51.567Z,81.14
2023-01-13T18:45:23.678Z,79.31
2023-01-13T18:47:54.947Z,80.09
2023-01-13T18:50:25.229Z,82.29
2023-01-13T18:52:56.913Z,82.64
2023-01-13T18:55:28.967Z,82.56
2023-01-13T18:57:59.581Z,80.17
2023-01-13T19:00:31.842Z,79.64
2023-01-13T19:05:38.613Z,81.07
2023-01-13T19:08:11.737Z,81.52
2023-01-13T19:10:45.891Z,84.21
2023-01-13T19:13:16.903Z,81.90
2023-01-13T19:15:47.566Z,82.12
2023-01-13T19:18:21.517Z,82.71
2023-01-13T19:20:51.729Z,82.08
2023-01-13T19:23:24.123Z,79.91
2023-01-13T19:25:54.556Z,81.36
2023-01-13T19:28:24.816Z,82.74
2023-01-13T19:30:54.606Z,81.30
2023-01-13T19:33:24.408Z,78.84
2023-01-13T19:35:56.333Z,81.86
2023-01-13T19:38:29.163Z,80.77
2023-01-13T19:41:00.831Z,81.67
2023-01-13T19:43:47.694Z,79.69
2023-01-13T19:46:17.849Z,80.11
2023-01-13T19:48:48.984Z,79.42
2023-01-13T19:51:18.558Z,79.75
2023-01-13T19:53:49.730Z,79.26
2023-01-13T19:56:19.284Z,79.19
2023-01-13T19:58:51.414Z,78.98
2023-01-13T20:01:21.276Z,78.49
2023-01-13T20:03:52.114Z,79.17
2023-01-13T20:06:22.051Z,78.98
2023-01-13T20:08:54.340Z,77.52
2023-01-13T20:11:28.501Z,79.26
2023-01-13T20:13:59.114Z,77.33
2023-01-13T20:16:29.581Z,78.60
2023-01-13T20:18:59.226Z,77.89
2023-01-13T20:21:29.561Z,77.64
2023-01-13T20:24:01.819Z,77.95
2023-01-13T20:26:31.541Z,77.73
2023-01-13T20:29:02.380Z,80.53
2023-01-13T20:31:32.584Z,79.38
2023-01-13T20:34:02.406Z,78.71
2023-01-13T20:36:37.792Z,80.47
2023-01-13T20:39:10.357Z,80.69
2023-01-13T20:41:57.891Z,80.85
2023-01-13T20:44:27.816Z,80.77
2023-01-13T20:46:59.386Z,78.71
2023-01-13T20:49:31.191Z,80.30
2023-01-13T20:52:01.325Z,79.44
2023-01-13T20:54:33.017Z,80.82
2023-01-13T20:57:03.405Z,80.05
2023-01-13T20:59:33.278Z,80.93
2023-01-13T21:02:03.463Z,80.11
2023-01-13T21:04:33.879Z,80.54
2023-01-13T21:07:04.119Z,81.36
2023-01-13T21:09:35.820Z,81.98
2023-01-13T21:12:24.439Z,79.80
2023-01-13T21:15:11.993Z,80.34
2023-01-13T21:17:58.653Z,78.06
2023-01-13T21:20:31.046Z,79.65
2023-01-13T21:23:01.926Z,77.17
2023-01-13T21:25:35.486Z,79.41
2023-01-13T21:28:07.876Z,81.26
2023-01-13T21:30:38.780Z,79.92
2023-01-13T21:33:08.933Z,81.75
2023-01-13T21:35:42.742Z,79.62
2023-01-13T21:38:14.412Z,79.21
2023-01-13T21:40:45.991Z,79.03
2023-01-13T21:43:35.888Z,79.31
2023-01-13T21:46:28.076Z,80.07
2023-01-13T21:48:58.268Z,81.62
2023-01-13T21:51:28.627Z,79.69
2023-01-13T21:53:59.507Z,79.15
2023-01-13T21:56:31.702Z,84.46
2023-01-13T21:59:01.942Z,80.94
2023-01-13T22:01:32.321Z,79.81
2023-01-13T22:04:14.936Z,83.56
2023-01-13T22:06:44.673Z,80.40
2023-01-13T22:09:14.978Z,79.61
2023-01-13T22:11:47.074Z,83.44
2023-01-13T22:14:17.506Z,82.63
2023-01-13T22:16:50.137Z,81.33
2023-01-13T22:19:20.703Z,84.54
2023-01-13T22:21:51.086Z,80.57
2023-01-13T22:24:21.360Z,79.79
2023-01-13T22:26:54.167Z,80.09
2023-01-13T22:29:24.390Z,82.34
2023-01-13T22:31:55.141Z,84.17
2023-01-13T22:34:25.889Z,81.42
2023-01-13T22:36:56.170Z,80.86
2023-01-13T22:39:26.388Z,82.06
2023-01-13T22:41:58.592Z,82.28
2023-01-13T22:44:28.777Z,81.36
2023-01-13T22:46:58.846Z,82.02
2023-01-13T22:49:29.311Z,83.40
2023-01-13T22:51:59.742Z,82.99
2023-01-13T22:54:30.355Z,80.71
2023-01-13T22:57:02.235Z,79.81
2023-01-13T22:59:32.551Z,80.65
2023-01-13T23:02:02.807Z,81.81
2023-01-13T23:04:32.676Z,82.70
2023-01-13T23:07:02.699Z,81.50
2023-01-13T23:09:32.536Z,81.88
2023-01-13T23:12:04.540Z,82.72
2023-01-13T23:14:34.943Z,82.75
2023-01-13T23:17:05.003Z,83.98
2023-01-13T23:19:35.438Z,87.72
2023-01-13T23:22:05.355Z,87.64
2023-01-13T23:24:35.364Z,84.39
2023-01-13T23:27:07.210Z,85.33
2023-01-13T23:29:37.532Z,83.72
2023-01-13T23:32:07.801Z,83.28
2023-01-13T23:34:38.137Z,86.26
2023-01-13T23:37:08.078Z,83.60
2023-01-13T23:39:37.753Z,81.83
2023-01-13T23:42:09.167Z,82.43
2023-01-13T23:44:39.252Z,82.91
2023-01-13T23:47:09.652Z,82.50
2023-01-13T23:49:41.206Z,83.69
2023-01-13T23:52:11.925Z,81.84
2023-01-13T23:54:41.905Z,83.39
2023-01-13T23:57:13.752Z,82.19
2023-01-13T23:59:43.289Z,83.06
